Harrisburg, Nebraska
Current Conditions -  °F | °C
As of 12:53 AM on Monday 22 Dec 2014 (Local Time) from KBFF Reporting Station
Broken Clouds Broken Clouds  
Wind Chill: 28°   Ceiling: 7500
Heat Index: 36°   Visibility: 10mi
Dew Point: 30°   Wind: 13mph
Humidity: 79%   Direction: 290°WNW
Pressure: 29.63"   Gusts: NA
Location:  41.56°N, 103.74°W
Report Text: KBFF 220753Z AUTO 29011KT 10SM BKN075 02/M01 A2963 RMK AO2 SLP034 T00221011
Loading
Personal Weather Stations






























Interactive Weather Map New forecast layout! Learn more

10-Day Weather Forecast

Advertisements
Track Severe Weather on mobile